Time;durP1;ratioP1;P1;durP2;ratioP2;P2;SDS_P1;SDS_P2;PMS_P1;PMS_P2;Temp;Humidity;BMP_temperature;BMP_pressure;BME280_temperature;BME280_humidity;BME280_pressure;Samples;Min_cycle;Max_cycle;Signal;HPM_P1;HPM_P2
2021/10/29 00:01:35;;;;;;;15.77;8.02;;;;;;;18.85;72.64;101366.44;5067182;28;20039;-73
2021/10/29 00:04:02;;;;;;;21.13;7.93;;;;;;;18.83;72.61;101363.81;5061168;28;20040;-73
2021/10/29 00:06:30;;;;;;;16.02;7.47;;;;;;;18.86;72.54;101362.88;5050452;28;20456;-73
2021/10/29 00:08:59;;;;;;;24.80;8.55;;;;;;;18.85;72.56;101361.97;5056277;28;20044;-73
2021/10/29 00:11:26;;;;;;;16.27;7.55;;;;;;;18.89;72.67;101368.22;5053294;28;20401;-73
2021/10/29 00:13:53;;;;;;;18.10;8.13;;;;;;;18.89;72.56;101374.44;5052668;28;20045;-73
2021/10/29 00:16:21;;;;;;;18.75;7.40;;;;;;;18.84;72.64;101365.53;5059244;28;20045;-73
2021/10/29 00:18:48;;;;;;;22.05;7.85;;;;;;;18.80;72.86;101366.47;5072415;28;20048;-73
2021/10/29 00:21:16;;;;;;;22.23;8.60;;;;;;;18.82;72.75;101355.78;5069539;28;20044;-73
2021/10/29 00:23:43;;;;;;;20.65;8.40;;;;;;;18.80;72.75;101353.09;5053407;28;20519;-73
2021/10/29 00:26:12;;;;;;;17.20;8.68;;;;;;;18.77;72.62;101353.16;5070137;28;20037;-73
2021/10/29 00:28:39;;;;;;;16.17;8.75;;;;;;;18.74;73.08;101353.16;5069463;28;20055;-73
2021/10/29 00:31:07;;;;;;;19.75;7.82;;;;;;;18.70;73.08;101359.44;5067094;28;20049;-74
2021/10/29 00:33:34;;;;;;;17.52;8.15;;;;;;;18.72;73.19;101354.97;5063529;28;20037;-72
2021/10/29 00:36:02;;;;;;;14.45;8.68;;;;;;;18.74;73.14;101361.19;5054088;28;20052;-72
2021/10/29 00:38:29;;;;;;;15.55;8.50;;;;;;;18.76;73.36;101359.41;5065651;28;20404;-73
2021/10/29 00:40:57;;;;;;;17.25;8.27;;;;;;;18.78;73.32;101364.72;5071975;28;20040;-73
2021/10/29 00:43:26;;;;;;;20.17;8.70;;;;;;;18.72;73.34;101354.97;5071776;28;20033;-73
2021/10/29 00:45:53;;;;;;;20.55;8.52;;;;;;;18.75;73.59;101362.06;5068793;28;20033;-73
2021/10/29 00:48:21;;;;;;;16.52;8.75;;;;;;;18.78;73.24;101357.56;5072104;28;20045;-73
2021/10/29 00:50:48;;;;;;;16.48;8.05;;;;;;;18.79;73.19;101355.78;5058127;28;20041;-73
2021/10/29 00:53:16;;;;;;;19.83;8.35;;;;;;;18.78;73.14;101360.25;5066242;28;20040;-74
2021/10/29 00:55:43;;;;;;;16.15;7.50;;;;;;;18.81;73.25;101354.00;5058983;28;20040;-73
2021/10/29 00:58:11;;;;;;;20.98;8.85;;;;;;;18.82;73.28;101355.78;5070124;28;20508;-73
2021/10/29 01:00:40;;;;;;;14.75;8.20;;;;;;;18.84;73.47;101351.31;5071305;28;20037;-73
2021/10/29 01:03:07;;;;;;;22.13;9.45;;;;;;;18.82;73.34;101347.75;5053027;28;20044;-73
2021/10/29 01:05:35;;;;;;;16.23;8.63;;;;;;;18.81;73.42;101349.53;5059798;28;20037;-73
2021/10/29 01:08:02;;;;;;;18.73;9.00;;;;;;;18.81;73.43;101344.19;5061767;28;20041;-72
2021/10/29 01:10:30;;;;;;;19.02;8.65;;;;;;;18.81;73.30;101337.94;5071644;28;20037;-69
2021/10/29 01:12:59;;;;;;;15.27;8.27;;;;;;;18.77;73.40;101345.13;5061844;28;20408;-74
2021/10/29 01:15:27;;;;;;;19.23;8.10;;;;;;;18.78;73.48;101341.53;5049759;28;20068;-72
2021/10/29 01:17:56;;;;;;;17.75;8.68;;;;;;;18.81;73.07;101338.84;5069435;28;20378;-73
2021/10/29 01:20:27;;;;;;;17.27;8.77;;;;;;;18.77;73.32;101345.13;5062907;28;20044;-73
2021/10/29 01:22:54;;;;;;;17.15;8.45;;;;;;;18.77;73.19;101349.59;5070926;28;20040;-73
2021/10/29 01:25:22;;;;;;;18.90;8.93;;;;;;;18.80;73.33;101353.09;5070332;28;20044;-73
2021/10/29 01:27:49;;;;;;;15.43;7.75;;;;;;;18.83;73.18;101346.84;5034051;28;20049;-73
2021/10/29 01:30:17;;;;;;;22.52;8.95;;;;;;;18.79;73.27;101351.31;5051681;28;20040;-73
2021/10/29 01:32:44;;;;;;;19.27;8.20;;;;;;;18.77;73.42;101346.91;5066943;28;20047;-73
2021/10/29 01:35:14;;;;;;;14.45;8.55;;;;;;;18.79;73.29;101345.97;5052953;28;20497;-73
2021/10/29 01:37:44;;;;;;;17.98;8.38;;;;;;;18.84;73.22;101352.16;5059101;28;20037;-73
2021/10/29 01:40:14;;;;;;;20.48;8.73;;;;;;;18.84;73.11;101357.53;5051057;28;20037;-72
2021/10/29 01:42:42;;;;;;;18.48;8.43;;;;;;;18.85;73.03;101358.41;5064385;28;20040;-73
2021/10/29 01:45:11;;;;;;;19.30;8.60;;;;;;;18.87;73.31;101351.28;5050939;28;20049;-73
2021/10/29 01:47:38;;;;;;;16.52;8.23;;;;;;;18.86;73.23;101347.69;5054686;28;20076;-74
2021/10/29 01:50:08;;;;;;;14.98;8.18;;;;;;;18.89;73.03;101342.34;5050238;28;20102;-73
2021/10/29 01:52:36;;;;;;;18.40;9.23;;;;;;;18.89;73.07;101347.69;5068220;28;20480;-73
2021/10/29 01:55:06;;;;;;;20.48;8.90;;;;;;;18.91;73.14;101343.19;5060971;28;20045;-73
2021/10/29 01:57:35;;;;;;;15.07;8.18;;;;;;;18.89;73.18;101342.34;5061076;28;20048;-73
2021/10/29 02:00:04;;;;;;;16.77;7.57;;;;;;;18.90;73.26;101343.22;5066086;28;20489;-73
2021/10/29 02:02:31;;;;;;;16.58;8.93;;;;;;;18.95;73.06;101336.03;5068444;28;20708;-73
2021/10/29 02:04:58;;;;;;;19.08;9.10;;;;;;;18.93;73.02;101343.19;5070975;28;20485;-73
2021/10/29 02:07:26;;;;;;;17.10;8.70;;;;;;;18.93;72.97;101340.50;5061343;28;20429;-73
2021/10/29 02:09:53;;;;;;;14.35;7.90;;;;;;;18.92;73.05;101344.97;5056526;28;20040;-73
2021/10/29 02:12:22;;;;;;;20.45;8.77;;;;;;;18.91;72.98;101348.53;5050354;28;20048;-73
2021/10/29 02:14:49;;;;;;;19.60;8.43;;;;;;;18.90;72.96;101344.13;5062424;28;20047;-73
2021/10/29 02:17:17;;;;;;;25.02;9.40;;;;;;;18.88;73.06;101345.91;5067875;28;20484;-73
2021/10/29 02:19:44;;;;;;;18.80;8.68;;;;;;;18.85;72.97;101345.03;5067610;28;20404;-73
2021/10/29 02:22:12;;;;;;;18.88;8.60;;;;;;;18.85;72.92;101343.25;5070180;28;20029;-72
2021/10/29 02:24:39;;;;;;;14.82;8.95;;;;;;;18.84;72.88;101344.16;5064530;28;20515;-72
2021/10/29 02:27:06;;;;;;;14.98;7.90;;;;;;;18.78;72.97;101348.66;5059247;28;20489;-73
2021/10/29 02:29:36;;;;;;;13.95;8.65;;;;;;;18.76;72.80;101346.03;5058228;28;20045;-73
2021/10/29 02:32:04;;;;;;;14.60;7.97;;;;;;;18.74;72.62;101346.94;5057701;28;20095;-73
2021/10/29 02:34:32;;;;;;;22.35;9.65;;;;;;;18.71;72.57;101342.47;5064429;28;20044;-72
2021/10/29 02:36:59;;;;;;;18.38;9.52;;;;;;;18.71;72.62;101340.69;5070415;28;20408;-74
2021/10/29 02:39:26;;;;;;;17.77;8.43;;;;;;;18.67;72.51;101335.38;5059563;28;20047;-74
2021/10/29 02:41:54;;;;;;;17.98;9.43;;;;;;;18.64;72.56;101336.28;5065505;28;20044;-73
2021/10/29 02:44:22;;;;;;;15.98;9.38;;;;;;;18.62;72.58;101337.22;5052842;28;20087;-73
2021/10/29 02:46:51;;;;;;;21.52;10.52;;;;;;;18.55;72.84;101347.09;5069550;28;20535;-73
2021/10/29 02:49:18;;;;;;;17.98;8.75;;;;;;;18.54;72.73;101339.03;5057349;28;20515;-73
2021/10/29 02:51:45;;;;;;;19.85;8.63;;;;;;;18.50;72.88;101334.63;5068168;28;20037;-73
2021/10/29 02:54:13;;;;;;;17.27;10.23;;;;;;;18.49;72.89;101327.50;5070123;28;20035;-73
2021/10/29 02:56:40;;;;;;;21.73;9.35;;;;;;;18.46;72.78;101325.72;5066564;28;20049;-72
2021/10/29 02:59:08;;;;;;;19.80;8.60;;;;;;;18.41;72.91;101316.84;5056958;28;20049;-73
2021/10/29 03:01:37;;;;;;;17.50;8.60;;;;;;;18.30;73.27;101316.94;5051011;28;20053;-73
2021/10/29 03:04:06;;;;;;;18.15;8.82;;;;;;;18.26;73.47;101320.50;5068242;28;20055;-73
2021/10/29 03:06:34;;;;;;;17.30;8.48;;;;;;;18.25;73.67;101310.72;5049487;28;20067;-73
2021/10/29 03:09:01;;;;;;;19.75;8.88;;;;;;;18.26;73.60;101315.16;5049747;28;20039;-71
2021/10/29 03:11:29;;;;;;;17.45;8.65;;;;;;;18.23;73.56;101317.88;5067070;28;20047;-73
2021/10/29 03:13:56;;;;;;;23.33;9.30;;;;;;;18.20;73.63;101317.88;5035325;28;20567;-72
2021/10/29 03:16:24;;;;;;;20.77;9.43;;;;;;;18.17;73.72;101320.59;5046096;28;20052;-72
2021/10/29 03:18:51;;;;;;;17.42;8.95;;;;;;;18.10;74.00;101326.88;5067865;28;20051;-72
2021/10/29 03:21:20;;;;;;;20.98;9.25;;;;;;;18.06;74.21;101319.75;5065586;28;20040;-73
2021/10/29 03:23:47;;;;;;;19.75;8.75;;;;;;;18.09;74.33;101321.53;5050002;28;20049;-73
2021/10/29 03:26:15;;;;;;;20.27;8.90;;;;;;;18.13;74.32;101316.16;5060153;28;20516;-72
2021/10/29 03:28:42;;;;;;;15.93;9.10;;;;;;;18.20;74.26;101325.00;5049763;28;20424;-73
2021/10/29 03:31:10;;;;;;;16.65;8.77;;;;;;;18.19;74.14;101324.13;5049829;28;20044;-72
2021/10/29 03:33:39;;;;;;;16.77;8.60;;;;;;;18.15;74.28;101327.72;5049726;28;20041;-72
2021/10/29 03:36:07;;;;;;;18.27;8.27;;;;;;;18.14;74.47;101333.97;5062629;28;20047;-73
2021/10/29 03:41:22;;;;;;;15.55;7.63;;;;;;;18.09;74.84;101332.22;5064866;28;20661;-73
2021/10/29 03:43:53;;;;;;;15.68;8.02;;;;;;;18.12;74.91;101326.84;5072731;28;20044;-72
2021/10/29 03:46:23;;;;;;;19.52;9.30;;;;;;;18.16;74.94;101334.84;5067781;28;20056;-73
2021/10/29 03:51:35;;;;;;;18.67;8.85;;;;;;;18.29;74.72;101324.97;5066467;28;20044;-71
2021/10/29 03:54:07;;;;;;;21.20;8.93;;;;;;;18.26;74.80;101324.97;5060025;28;20036;-72
2021/10/29 03:56:44;;;;;;;17.42;9.52;;;;;;;18.31;74.78;101332.06;5058534;28;20044;-73
2021/10/29 03:59:12;;;;;;;19.10;9.80;;;;;;;18.36;74.73;101323.13;5071639;28;20033;-72
2021/10/29 04:01:40;;;;;;;17.10;8.68;;;;;;;18.40;74.69;101319.53;5064202;28;20083;-73
2021/10/29 04:04:08;;;;;;;21.13;9.88;;;;;;;18.35;74.50;101319.56;5058596;28;20037;-73
2021/10/29 04:06:35;;;;;;;18.75;9.82;;;;;;;18.37;74.59;101319.56;5065659;28;20504;-72
2021/10/29 04:09:04;;;;;;;16.33;9.18;;;;;;;18.35;74.64;101319.56;5051895;28;20040;-72
2021/10/29 04:11:36;;;;;;;16.33;9.32;;;;;;;18.33;74.75;101322.25;5066142;28;20110;-71
2021/10/29 04:14:05;;;;;;;19.83;11.88;;;;;;;18.29;74.99;101319.63;5052703;28;20114;-72
2021/10/29 04:16:36;;;;;;;20.70;9.77;;;;;;;18.30;75.19;101326.75;5069371;28;20051;-72
2021/10/29 04:19:04;;;;;;;18.05;9.45;;;;;;;18.38;75.26;101327.53;5067684;28;20036;-71
2021/10/29 04:21:32;;;;;;;16.20;8.90;;;;;;;18.44;75.05;101323.97;5055269;28;20051;-71
2021/10/29 04:24:00;;;;;;;19.92;9.35;;;;;;;18.48;75.10;101323.94;5068403;28;20033;-73
2021/10/29 04:26:29;;;;;;;22.50;8.75;;;;;;;18.52;75.01;101323.00;5058026;28;20083;-72
2021/10/29 04:28:56;;;;;;;14.63;8.43;;;;;;;18.50;75.04;101321.25;5051337;28;20045;-73
2021/10/29 04:31:28;;;;;;;24.50;8.60;;;;;;;18.51;75.15;101317.69;5050685;28;20124;-73
2021/10/29 04:33:55;;;;;;;20.38;10.20;;;;;;;18.55;75.14;101319.41;5052450;28;20033;-73
2021/10/29 04:36:24;;;;;;;22.77;9.85;;;;;;;18.62;75.15;101326.53;5053550;28;20440;-73
2021/10/29 04:38:52;;;;;;;19.08;10.68;;;;;;;18.67;75.19;101322.00;5052386;28;20053;-72
2021/10/29 04:41:19;;;;;;;25.65;14.95;;;;;;;18.63;75.24;101321.16;5058562;28;20059;-72
2021/10/29 04:43:48;;;;;;;25.58;14.93;;;;;;;18.62;75.18;101310.47;5051949;28;20068;-73
2021/10/29 04:46:16;;;;;;;28.80;16.23;;;;;;;18.62;75.44;101311.38;5061493;28;20052;-72
2021/10/29 04:48:44;;;;;;;27.55;14.98;;;;;;;18.66;75.37;101306.88;5054109;28;20049;-73
2021/10/29 04:51:11;;;;;;;21.50;12.90;;;;;;;18.66;75.49;101310.44;5070340;28;20048;-73
2021/10/29 04:53:39;;;;;;;20.17;12.82;;;;;;;18.64;75.47;101308.69;5069807;28;20040;-73
2021/10/29 04:56:06;;;;;;;18.58;10.73;;;;;;;18.58;75.84;101308.72;5061371;28;20037;-74
2021/10/29 04:58:33;;;;;;;19.83;10.70;;;;;;;18.58;76.00;101314.94;5059696;28;20041;-72
2021/10/29 05:01:02;;;;;;;22.85;10.50;;;;;;;18.62;76.10;101306.03;5060620;28;20104;-73
2021/10/29 05:03:30;;;;;;;18.92;10.00;;;;;;;18.60;76.06;101321.19;5042604;28;20037;-72
2021/10/29 05:05:57;;;;;;;25.17;10.48;;;;;;;18.65;76.04;101323.81;5044153;28;20043;-72
2021/10/29 05:08:25;;;;;;;23.10;10.32;;;;;;;18.73;76.20;101318.41;5057537;28;20043;-72
2021/10/29 05:10:52;;;;;;;30.35;11.65;;;;;;;18.78;76.04;101321.91;5064225;28;20059;-73
2021/10/29 05:13:20;;;;;;;20.75;12.82;;;;;;;18.80;76.02;101322.78;5066328;28;20032;-72
2021/10/29 05:15:48;;;;;;;18.98;10.82;;;;;;;18.80;76.46;101317.44;5055951;28;20033;-72
2021/10/29 05:18:21;;;;;;;21.48;12.98;;;;;;;18.86;76.31;101323.63;5058231;28;20064;-72
2021/10/29 05:20:49;;;;;;;26.88;11.75;;;;;;;18.89;76.41;101325.41;5052318;28;20109;-72
2021/10/29 05:23:16;;;;;;;23.75;12.80;;;;;;;18.90;76.54;101337.88;5062514;28;20045;-72
2021/10/29 05:25:44;;;;;;;28.08;12.77;;;;;;;18.93;76.84;101333.38;5054551;28;20044;-72
2021/10/29 05:28:11;;;;;;;22.60;10.98;;;;;;;18.96;77.09;101338.72;5054737;28;20047;-72
2021/10/29 05:30:39;;;;;;;18.30;10.25;;;;;;;18.98;76.93;101342.22;5050982;28;20052;-73
2021/10/29 05:33:07;;;;;;;19.10;11.07;;;;;;;19.05;76.96;101346.63;5025895;28;20040;-72
2021/10/29 05:35:36;;;;;;;18.88;10.05;;;;;;;19.11;77.27;101354.59;5024022;28;20045;-72
2021/10/29 05:38:04;;;;;;;21.52;10.10;;;;;;;19.22;77.39;101357.19;5017210;28;20045;-71
2021/10/29 05:40:32;;;;;;;17.70;7.32;;;;;;;19.32;77.39;101369.56;5025364;28;20045;-69
2021/10/29 05:42:59;;;;;;;16.23;7.82;;;;;;;19.38;76.98;101372.16;5020753;28;20052;-72
2021/10/29 05:45:27;;;;;;;20.75;8.68;;;;;;;19.45;76.95;101375.66;5032462;28;20068;-73
2021/10/29 05:47:55;;;;;;;21.35;8.18;;;;;;;19.55;76.44;101377.38;5042313;28;20065;-73
2021/10/29 05:50:23;;;;;;;17.90;7.88;;;;;;;19.71;76.70;101380.75;5038440;28;20044;-72
2021/10/29 05:52:52;;;;;;;18.17;8.90;;;;;;;19.96;77.04;101379.53;5043632;28;20043;-72
2021/10/29 05:55:20;;;;;;;21.10;12.25;;;;;;;20.18;77.45;101381.03;5044018;28;20036;-72
2021/10/29 05:57:49;;;;;;;27.60;18.40;;;;;;;20.46;77.51;101381.56;5043779;28;20037;-72
2021/10/29 06:00:22;;;;;;;23.67;13.27;;;;;;;20.74;77.08;101375.75;5043979;28;20037;-72
2021/10/29 06:02:49;;;;;;;32.70;13.48;;;;;;;20.92;75.71;101380.81;5039704;28;20049;-72
2021/10/29 06:05:18;;;;;;;27.42;11.43;;;;;;;21.13;73.96;101371.50;5039529;28;20156;-73
2021/10/29 06:07:45;;;;;;;16.67;7.57;;;;;;;21.32;72.87;101376.53;5041431;28;20033;-73
2021/10/29 06:10:16;;;;;;;15.63;6.30;;;;;;;21.43;70.39;101374.53;5024969;28;20052;-72
2021/10/29 06:12:44;;;;;;;15.25;5.82;;;;;;;21.41;69.18;101384.41;5046651;28;20405;-73
2021/10/29 06:15:13;;;;;;;14.25;7.18;;;;;;;21.42;68.60;101367.38;5044729;28;20067;-72
2021/10/29 06:17:40;;;;;;;12.38;6.63;;;;;;;21.51;69.07;101373.50;5048846;28;20072;-73
2021/10/29 06:20:09;;;;;;;18.52;7.93;;;;;;;21.68;69.31;101371.34;5040963;28;20523;-72
2021/10/29 06:22:39;;;;;;;16.52;6.00;;;;;;;21.88;69.13;101372.72;5049888;28;20037;-73
2021/10/29 06:25:12;;;;;;;10.07;5.40;;;;;;;22.08;68.36;101372.31;5033403;28;20080;-72
2021/10/29 06:30:27;;;;;;;14.20;5.32;;;;;;;22.14;67.57;101382.06;5030939;28;20045;-73
2021/10/29 06:32:55;;;;;;;10.65;5.97;;;;;;;22.01;67.05;101389.50;5058081;28;20036;-73
2021/10/29 06:35:23;;;;;;;14.20;6.05;;;;;;;21.92;66.74;101381.63;5067179;28;20049;-73
2021/10/29 06:37:51;;;;;;;12.63;5.47;;;;;;;21.79;65.84;101385.47;5062818;28;20063;-72
2021/10/29 06:40:18;;;;;;;12.68;5.90;;;;;;;21.62;65.68;101387.59;5032604;28;20037;-73
2021/10/29 06:42:51;;;;;;;17.13;6.07;;;;;;;21.44;65.70;101395.13;5046232;28;20051;-73
2021/10/29 06:45:45;;;;;;;13.80;6.95;;;;;;;21.32;65.60;101391.78;5055797;28;20485;-72
2021/10/29 06:48:24;;;;;;;14.55;7.20;;;;;;;21.24;65.49;101391.91;5059960;28;20041;-72
2021/10/29 06:59:20;;;;;;;15.38;6.90;;;;;;;21.00;65.81;101401.22;5030142;28;20501;-73
2021/10/29 07:01:51;;;;;;;;;;;;;;;20.92;65.86;101402.28;5042658;28;20040;-72
2021/10/29 07:04:37;;;;;;;18.83;6.88;;;;;;;20.84;66.01;101399.72;5029839;28;19921;-72
2021/10/29 07:42:49;;;;;;;14.15;6.40;;;;;;;21.29;64.66;101395.38;5035973;28;19928;-73
2021/10/29 07:45:18;;;;;;;17.25;7.13;;;;;;;21.26;64.56;101398.16;5033013;28;20037;-74
2021/10/29 07:47:47;;;;;;;16.50;6.30;;;;;;;21.31;64.62;101390.88;5019135;28;20052;-73
2021/10/29 07:50:16;;;;;;;13.35;6.50;;;;;;;21.47;64.91;101399.53;5013964;28;20501;-73
2021/10/29 07:52:45;;;;;;;14.52;6.10;;;;;;;21.53;64.37;101393.19;5013734;28;20038;-73
2021/10/29 07:55:15;;;;;;;10.52;5.75;;;;;;;21.51;64.08;101398.56;5013332;28;20481;-74
2021/10/29 07:57:44;;;;;;;13.80;6.20;;;;;;;21.47;64.10;101397.72;5024025;28;20049;-74
2021/10/29 08:00:13;;;;;;;16.65;6.50;;;;;;;21.50;64.27;101395.91;5033053;28;20046;-74
2021/10/29 08:02:40;;;;;;;12.60;5.75;;;;;;;21.45;64.16;101404.06;5021078;28;20049;-73
2021/10/29 08:05:10;;;;;;;15.68;6.85;;;;;;;21.45;64.02;101404.06;5015509;28;20490;-73
2021/10/29 08:07:38;;;;;;;13.65;6.30;;;;;;;21.49;64.13;101403.06;5030149;28;20515;-73
2021/10/29 08:10:07;;;;;;;16.23;6.68;;;;;;;21.56;63.98;101406.53;5021821;28;20835;-73
2021/10/29 08:12:35;;;;;;;13.65;6.78;;;;;;;21.62;64.03;101411.78;5022570;28;20065;-73
2021/10/29 08:15:04;;;;;;;17.15;6.28;;;;;;;21.68;64.15;101414.34;5019016;28;20048;-74
2021/10/29 08:17:33;;;;;;;17.98;7.57;;;;;;;21.69;63.90;101410.75;5028289;28;20057;-73
2021/10/29 08:20:01;;;;;;;12.88;6.93;;;;;;;21.66;63.60;101406.31;5032944;28;20061;-73
2021/10/29 08:22:30;;;;;;;18.40;6.40;;;;;;;21.68;63.53;101398.22;5026936;28;20042;-74
2021/10/29 08:24:57;;;;;;;14.90;6.25;;;;;;;21.70;63.35;101399.97;5032522;28;20132;-73
2021/10/29 08:27:25;;;;;;;13.85;6.15;;;;;;;21.66;63.18;101395.56;5032414;28;20038;-73
2021/10/29 08:29:53;;;;;;;13.85;6.20;;;;;;;21.66;63.21;101386.66;5032842;28;20057;-74
2021/10/29 08:32:20;;;;;;;13.57;5.97;;;;;;;21.73;63.36;101380.19;5064973;28;20040;-74
2021/10/29 08:34:48;;;;;;;14.85;6.88;;;;;;;21.86;63.62;101381.72;5057742;28;20035;-74
2021/10/29 08:37:15;;;;;;;16.67;6.15;;;;;;;21.99;63.36;101391.31;5052450;28;20041;-74
2021/10/29 08:39:45;;;;;;;13.70;6.00;;;;;;;22.01;62.88;101392.19;5051721;28;20068;-74
2021/10/29 08:42:12;;;;;;;17.95;7.65;;;;;;;22.02;62.38;101396.66;5052780;28;20052;-74
2021/10/29 08:44:39;;;;;;;13.98;6.75;;;;;;;22.07;62.15;101388.47;5052452;28;20052;-74
2021/10/29 08:47:07;;;;;;;15.80;6.10;;;;;;;22.14;62.33;101385.63;5051936;28;20029;-74
2021/10/29 08:49:35;;;;;;;15.68;6.40;;;;;;;;;;5052303;28;20041;-74
2021/10/29 08:52:05;;;;;;;15.98;5.82;;;;;;;22.18;61.84;101379.28;5069108;28;20033;-74
2021/10/29 08:54:33;;;;;;;13.20;6.28;;;;;;;22.15;61.64;101382.03;5071055;28;20049;-74
2021/10/29 08:57:02;;;;;;;14.40;6.00;;;;;;;22.11;61.57;101385.72;5070144;28;20047;-74
2021/10/29 08:59:32;;;;;;;14.43;6.70;;;;;;;22.08;61.57;101385.75;5071816;28;20041;-74
2021/10/29 09:02:04;;;;;;;13.65;6.28;;;;;;;22.10;61.68;101383.94;5071097;28;20044;-74
2021/10/29 09:04:42;;;;;;;13.48;5.95;;;;;;;22.09;61.37;101376.78;5049034;28;20223;-74
2021/10/29 09:10:19;;;;;;;15.70;6.57;;;;;;;21.99;60.97;101377.03;5044152;28;20037;-74
2021/10/29 09:32:33;;;;;;;15.57;5.65;;;;;;;22.54;60.10;101355.09;5068128;28;20461;-74
2021/10/29 09:35:09;;;;;;;15.80;6.25;;;;;;;22.62;59.66;101350.44;5055187;28;20119;-74
2021/10/29 09:37:55;;;;;;;14.45;5.60;;;;;;;22.76;59.32;101359.09;5060302;28;20052;-74
2021/10/29 09:40:24;;;;;;;12.23;5.25;;;;;;;22.75;59.11;101351.03;5071878;28;20060;-73
2021/10/29 09:42:54;;;;;;;14.32;6.07;;;;;;;22.78;58.51;101349.16;5055985;28;20040;-74
2021/10/29 09:45:28;;;;;;;18.55;7.13;;;;;;;22.88;58.37;101356.09;5060332;28;20041;-73
2021/10/29 09:48:09;;;;;;;;;;;;;;;22.90;58.67;101353.34;5070873;28;20086;-74
2021/10/29 09:50:47;;;;;;;10.70;5.13;;;;;;;22.90;58.62;101356.94;5070598;28;20402;-73
2021/10/29 09:53:34;;;;;;;13.52;5.97;;;;;;;22.85;58.46;101345.38;5070646;28;20039;-74
2021/10/29 09:56:06;;;;;;;13.45;6.30;;;;;;;22.87;58.37;101345.34;5056732;28;20142;-73
2021/10/29 09:58:34;;;;;;;12.88;6.30;;;;;;;22.85;58.13;101345.38;5050542;28;20041;-72
2021/10/29 10:01:05;;;;;;;14.55;6.10;;;;;;;22.88;58.27;101344.44;5054282;28;20037;-74
2021/10/29 10:03:33;;;;;;;11.75;5.72;;;;;;;22.89;58.25;101341.69;5056006;28;20063;-74
2021/10/29 10:06:03;;;;;;;14.20;6.55;;;;;;;22.82;58.21;101336.50;5051354;28;20067;-74
2021/10/29 10:08:31;;;;;;;14.05;6.60;;;;;;;22.84;58.27;101342.75;5052462;28;20048;-73
2021/10/29 10:10:59;;;;;;;15.30;6.38;;;;;;;22.81;57.77;101341.00;5035634;28;20037;-73
2021/10/29 10:13:28;;;;;;;10.85;6.28;;;;;;;22.73;57.73;101343.00;5042969;28;20039;-73
2021/10/29 10:16:00;;;;;;;19.20;7.72;;;;;;;22.77;57.95;101341.13;5037210;28;20049;-74
2021/10/29 10:18:29;;;;;;;14.65;6.80;;;;;;;22.77;58.13;101341.13;5037688;28;20041;-74
2021/10/29 10:20:59;;;;;;;13.43;6.45;;;;;;;22.76;57.99;101339.34;5046456;28;20397;-73
2021/10/29 10:23:31;;;;;;;13.18;6.47;;;;;;;22.74;57.84;101339.38;5036349;28;20116;-73
2021/10/29 10:28:57;;;;;;;11.65;6.47;;;;;;;22.80;58.05;101333.84;5056321;28;20048;-73
2021/10/29 10:46:14;;;;;;;12.85;6.30;;;;;;;22.67;57.34;101321.59;5012252;28;20418;-73
2021/10/29 10:48:46;;;;;;;14.90;6.32;;;;;;;22.61;57.23;101321.75;5043174;28;20040;-73
2021/10/29 10:54:27;;;;;;;13.80;6.45;;;;;;;22.75;57.67;101322.31;5051073;28;20072;-74
2021/10/29 10:59:55;;;;;;;13.20;6.50;;;;;;;22.85;57.35;101307.69;5070800;28;20048;-74
2021/10/29 11:05:32;;;;;;;13.77;6.85;;;;;;;22.85;57.27;101317.56;5061709;28;20051;-73
2021/10/29 11:11:15;;;;;;;12.75;6.22;;;;;;;22.56;57.23;101300.34;5067457;28;20516;-73
2021/10/29 11:14:00;;;;;;;13.13;7.07;;;;;;;22.49;57.59;101312.16;5073635;28;20492;-73
2021/10/29 11:16:35;;;;;;;14.07;5.90;;;;;;;22.58;57.70;101305.66;5071872;28;20033;-73
2021/10/29 11:19:07;;;;;;;13.15;6.57;;;;;;;22.66;57.73;101309.03;5068760;28;20110;-75
2021/10/29 11:21:37;;;;;;;15.50;7.00;;;;;;;22.75;57.60;101307.97;5067801;28;20127;-72
2021/10/29 11:24:08;;;;;;;17.83;7.28;;;;;;;22.80;57.45;101301.53;5064770;28;20058;-73
2021/10/29 11:26:41;;;;;;;11.57;6.30;;;;;;;22.86;57.66;101301.38;5073470;28;20454;-75
2021/10/29 11:29:09;;;;;;;11.38;5.78;;;;;;;22.97;57.57;101293.88;5062229;28;20420;-75
2021/10/29 11:31:39;;;;;;;13.23;7.13;;;;;;;23.12;57.53;101292.59;5059817;28;20062;-74
2021/10/29 11:34:12;;;;;;;16.65;6.60;;;;;;;23.23;57.36;101285.13;5066485;28;20144;-73
2021/10/29 11:36:40;;;;;;;14.52;7.18;;;;;;;23.09;56.81;101281.03;5059533;28;20112;-73
2021/10/29 11:39:11;;;;;;;26.15;11.90;;;;;;;22.94;56.85;101282.31;5067391;28;20037;-72
2021/10/29 11:41:42;;;;;;;17.35;7.35;;;;;;;22.91;57.20;101282.38;5051281;28;20045;-72
2021/10/29 11:44:12;;;;;;;16.23;6.80;;;;;;;22.82;57.30;101279.97;5040162;28;20037;-73
2021/10/29 11:46:41;;;;;;;15.98;7.25;;;;;;;22.61;57.52;101286.75;5035490;28;20137;-72
2021/10/29 11:49:10;;;;;;;13.65;7.03;;;;;;;22.47;57.68;101278.13;5033667;28;20371;-72
2021/10/29 11:51:39;;;;;;;18.13;6.60;;;;;;;22.34;57.75;101273.97;5035393;28;20489;-72
2021/10/29 11:54:16;;;;;;;13.45;6.50;;;;;;;22.18;57.72;101285.13;5040468;28;20049;-72
2021/10/29 11:56:47;;;;;;;19.48;7.43;;;;;;;22.12;57.80;101279.88;5037942;28;20037;-73
2021/10/29 12:05:49;;;;;;;14.02;7.20;;;;;;;22.00;58.07;101282.84;5033013;28;20041;-73
2021/10/29 12:07:42;;;;;;;16.15;6.60;;;;;;;21.85;58.83;101281.38;5048213;28;20045;-73
2021/10/29 12:10:16;;;;;;;14.43;7.57;;;;;;;21.78;58.87;101278.88;5032446;28;20053;-72
2021/10/29 12:12:45;;;;;;;20.83;8.60;;;;;;;21.73;59.10;101275.38;5039997;28;20045;-73
2021/10/29 12:15:15;;;;;;;16.85;7.70;;;;;;;21.71;59.35;101275.44;5052910;28;20033;-73
2021/10/29 12:17:52;;;;;;;16.88;8.48;;;;;;;21.71;59.50;101287.97;5052964;28;20091;-73
2021/10/29 12:20:23;;;;;;;14.07;7.38;;;;;;;21.73;59.60;101292.38;5042131;28;20049;-73
2021/10/29 12:22:56;;;;;;;17.05;6.50;;;;;;;21.73;59.62;101291.50;5032852;28;20493;-74
2021/10/29 12:25:32;;;;;;;18.65;7.78;;;;;;;21.73;59.91;101286.13;5049944;28;20569;-74
2021/10/29 12:28:04;;;;;;;15.80;7.43;;;;;;;21.75;59.82;101286.97;5052468;28;20044;-75
2021/10/29 12:30:35;;;;;;;16.45;7.30;;;;;;;21.69;59.70;101281.75;5039729;28;20044;-75
2021/10/29 12:53:07;;;;;;;14.93;7.60;;;;;;;21.77;60.51;101288.72;5031837;28;20041;-76
2021/10/29 12:58:54;;;;;;;14.55;7.20;;;;;;;21.79;60.51;101292.25;5035049;28;20055;-71
2021/10/29 13:01:37;;;;;;;16.45;6.78;;;;;;;21.79;60.55;101277.94;5038716;28;20044;-73
2021/10/29 13:04:08;;;;;;;14.32;7.82;;;;;;;21.70;60.68;101275.47;5050782;28;20126;-72
2021/10/29 13:06:38;;;;;;;14.90;7.00;;;;;;;21.62;61.07;101291.75;5051886;28;20037;-73
2021/10/29 13:09:15;;;;;;;18.60;8.18;;;;;;;21.68;61.01;101291.59;5051383;28;20055;-72
2021/10/29 13:11:49;;;;;;;12.75;7.18;;;;;;;21.73;61.02;101281.63;5042496;28;20044;-75
2021/10/29 13:14:28;;;;;;;17.08;7.00;;;;;;;21.80;61.03;101285.06;5051006;28;20033;-75
2021/10/29 13:16:56;;;;;;;15.30;6.15;;;;;;;21.78;60.53;101289.63;5050307;28;20043;-77
2021/10/29 13:19:45;;;;;;;15.48;7.28;;;;;;;21.74;60.41;101294.16;5049034;28;20056;-79
2021/10/29 13:22:57;;;;;;;15.32;6.95;;;;;;;21.73;60.43;101291.50;5040388;28;20499;-76
2021/10/29 13:53:05;;;;;;;24.35;11.88;;;;;;;21.39;62.02;101283.28;5048217;28;20484;-79
2021/10/29 14:01:25;;;;;;;16.05;9.23;;;;;;;21.27;62.37;101276.34;5049500;28;20044;-79
2021/10/29 14:04:11;;;;;;;18.05;7.70;;;;;;;21.23;62.75;101285.38;5050616;28;20164;-79
2021/10/29 14:28:46;;;;;;;;;;;;;;;20.84;64.35;101283.44;5059766;28;20055;-78
2021/10/29 14:31:19;;;;;;;17.08;7.13;;;;;;;20.82;64.44;101277.19;5069883;28;20427;-79
2021/10/29 14:33:52;;;;;;;22.80;8.50;;;;;;;20.82;64.69;101287.94;5070195;28;20051;-79
2021/10/29 14:36:24;;;;;;;16.90;7.03;;;;;;;20.81;65.05;101286.16;5058220;28;20045;-79
2021/10/29 14:39:05;;;;;;;16.15;7.30;;;;;;;20.83;65.01;101285.22;5054646;28;20055;-78